Time;durP1;ratioP1;P1;durP2;ratioP2;P2;SDS_P1;SDS_P2;PMS_P1;PMS_P2;Temp;Humidity;BMP_temperature;BMP_pressure;BME280_temperature;BME280_humidity;BME280_pressure;Samples;Min_cycle;Max_cycle;Signal;HPM_P1;HPM_P2
2024/01/12 00:01:47;;;;;;;114.63;50.17;;;;;;;5.46;nan;99124.84;4971283;28;20089;-77
2024/01/12 00:04:16;;;;;;;115.95;49.03;;;;;;;5.34;nan;99132.97;4947687;28;20557;-75
2024/01/12 00:06:46;;;;;;;107.63;47.70;;;;;;;5.30;nan;99131.59;4957106;28;20079;-75
2024/01/12 00:09:16;;;;;;;112.18;49.28;;;;;;;5.52;nan;99119.84;4966423;28;20057;-76
2024/01/12 00:11:45;;;;;;;132.40;46.55;;;;;;;5.47;nan;99124.72;4954503;28;20134;-76
2024/01/12 00:14:14;;;;;;;128.05;46.78;;;;;;;5.48;nan;99128.16;4950782;28;20061;-76
2024/01/12 00:16:47;;;;;;;127.80;44.60;;;;;;;5.36;nan;99127.53;4967946;28;20047;-75
2024/01/12 00:19:19;;;;;;;116.38;43.78;;;;;;;5.44;nan;99125.81;4983253;28;20177;-75
2024/01/12 00:21:48;;;;;;;117.47;44.35;;;;;;;5.47;nan;99126.50;4984151;28;20442;-75
2024/01/12 00:24:17;;;;;;;107.82;45.63;;;;;;;5.58;nan;99128.88;4984675;28;20133;-76
2024/01/12 00:26:47;;;;;;;99.65;43.78;;;;;;;5.51;nan;99126.06;4987347;28;20056;-76
2024/01/12 00:29:17;;;;;;;112.45;43.22;;;;;;;5.62;nan;99143.41;4973455;28;20055;-76
2024/01/12 00:31:46;;;;;;;107.82;41.58;;;;;;;5.54;nan;99151.19;4972603;28;20058;-76
2024/01/12 00:34:15;;;;;;;116.50;43.05;;;;;;;5.57;nan;99156.16;4977600;28;20124;-76
2024/01/12 00:36:47;;;;;;;140.90;41.75;;;;;;;5.38;nan;99154.50;4961391;28;20473;-76
2024/01/12 00:39:17;;;;;;;99.68;42.58;;;;;;;5.49;nan;99162.13;4973828;28;20122;-77
2024/01/12 00:41:47;;;;;;;99.88;38.90;;;;;;;5.53;nan;99166.16;4978801;28;20390;-76
2024/01/12 00:44:21;;;;;;;95.57;42.50;;;;;;;5.49;nan;99166.59;4959426;28;20074;-76
2024/01/12 00:46:52;;;;;;;108.95;42.25;;;;;;;5.49;nan;99177.09;4978841;28;20111;-76
2024/01/12 00:49:22;;;;;;;129.73;43.72;;;;;;;5.56;nan;99172.88;4960262;28;20078;-76
2024/01/12 00:51:51;;;;;;;112.63;41.60;;;;;;;5.61;nan;99179.34;4975531;28;20073;-76
2024/01/12 00:54:26;;;;;;;115.32;44.97;;;;;;;5.74;nan;99174.56;4965403;28;20155;-77
2024/01/12 00:56:56;;;;;;;136.02;47.67;;;;;;;5.71;nan;99182.72;4982810;28;20481;-76
2024/01/12 00:59:25;;;;;;;115.80;48.47;;;;;;;5.82;nan;99189.56;4967668;28;20736;-76
2024/01/12 01:01:57;;;;;;;119.15;49.85;;;;;;;5.71;nan;99197.69;4978404;28;20050;-76
2024/01/12 01:04:27;;;;;;;107.80;45.83;;;;;;;5.76;nan;99208.56;4978211;28;20093;-76
2024/01/12 01:06:57;;;;;;;134.18;45.45;;;;;;;5.72;nan;99197.53;4973860;28;20054;-76
2024/01/12 01:09:27;;;;;;;105.13;48.50;;;;;;;5.69;nan;99207.50;4965971;28;20105;-77
2024/01/12 01:11:57;;;;;;;99.75;46.38;;;;;;;5.83;nan;99201.75;4970560;28;20082;-76
2024/01/12 01:14:26;;;;;;;102.70;48.05;;;;;;;5.86;nan;99196.16;4967741;28;20057;-76
2024/01/12 01:16:56;;;;;;;102.43;47.30;;;;;;;5.82;nan;99206.16;4963342;28;20042;-76
2024/01/12 01:19:25;;;;;;;102.05;47.13;;;;;;;5.84;nan;99211.28;4982662;28;20042;-76
2024/01/12 01:21:55;;;;;;;104.00;47.22;;;;;;;5.92;nan;99214.00;4990506;28;20050;-76
2024/01/12 01:24:28;;;;;;;112.75;50.42;;;;;;;5.85;nan;99212.91;4989264;28;20051;-77
2024/01/12 01:26:58;;;;;;;124.93;51.95;;;;;;;5.87;nan;99221.53;4985728;28;20516;-76
2024/01/12 01:29:27;;;;;;;159.02;54.80;;;;;;;5.82;nan;99211.41;4985742;28;20054;-76
2024/01/12 01:31:57;;;;;;;142.20;56.08;;;;;;;5.90;nan;99213.31;4986519;28;20086;-76
2024/01/12 01:34:27;;;;;;;151.18;57.38;;;;;;;5.89;nan;99201.16;4966181;28;20054;-75
2024/01/12 01:37:01;;;;;;;124.43;53.72;;;;;;;5.87;nan;99203.13;4955928;28;20049;-76
2024/01/12 01:39:31;;;;;;;143.05;56.22;;;;;;;5.77;nan;99212.84;5005034;28;20093;-75
2024/01/12 01:42:01;;;;;;;136.15;54.65;;;;;;;5.79;nan;99227.50;4979642;28;20050;-75
2024/01/12 01:44:30;;;;;;;129.65;54.72;;;;;;;5.89;nan;99242.41;4988171;28;20794;-76
2024/01/12 01:47:00;;;;;;;137.38;52.70;;;;;;;6.00;nan;99245.63;4996719;28;20174;-76
2024/01/12 01:49:29;;;;;;;124.13;53.38;;;;;;;6.00;nan;99258.78;4968612;28;20058;-76
2024/01/12 01:51:59;;;;;;;140.23;54.15;;;;;;;5.85;nan;99257.59;4982240;28;20046;-76
2024/01/12 01:54:28;;;;;;;127.10;53.25;;;;;;;5.91;nan;99257.03;4973716;28;20562;-75
2024/01/12 01:56:58;;;;;;;141.77;53.47;;;;;;;5.85;nan;99254.97;4982795;28;20069;-75
2024/01/12 01:59:28;;;;;;;127.97;55.28;;;;;;;5.80;nan;99257.22;4976515;28;20051;-75
2024/01/12 02:01:58;;;;;;;135.55;54.28;;;;;;;5.91;nan;99262.28;4980274;28;20351;-75
2024/01/12 02:04:28;;;;;;;129.52;56.22;;;;;;;5.91;nan;99258.84;5009026;28;20053;-76
2024/01/12 02:06:57;;;;;;;138.88;58.47;;;;;;;5.75;nan;99270.78;4990902;28;20162;-76
2024/01/12 02:09:28;;;;;;;138.93;58.35;;;;;;;5.95;nan;99270.72;4983918;28;20058;-76
2024/01/12 02:11:58;;;;;;;137.60;60.40;;;;;;;6.13;nan;99269.75;4976549;28;20112;-75
2024/01/12 02:14:27;;;;;;;157.27;60.13;;;;;;;6.10;nan;99266.59;5006051;28;20521;-76
2024/01/12 02:16:56;;;;;;;133.43;59.50;;;;;;;6.04;nan;99273.28;4989655;28;20081;-75
2024/01/12 02:19:26;;;;;;;145.27;60.15;;;;;;;6.02;nan;99280.47;4988661;28;20063;-75
2024/01/12 02:21:55;;;;;;;150.50;63.20;;;;;;;6.11;nan;99284.00;5006999;28;20050;-75
2024/01/12 02:24:25;;;;;;;148.68;62.55;;;;;;;6.24;nan;99274.75;4971555;28;20514;-75
2024/01/12 02:26:54;;;;;;;144.02;62.70;;;;;;;6.26;nan;99269.34;4999863;28;20052;-75
2024/01/12 02:29:25;;;;;;;160.50;66.35;;;;;;;6.20;nan;99273.41;4968720;28;20051;-75
2024/01/12 02:31:55;;;;;;;151.52;66.45;;;;;;;6.21;nan;99271.63;4986461;28;20831;-75
2024/01/12 02:34:25;;;;;;;152.95;63.67;;;;;;;6.22;nan;99268.84;4988389;28;20433;-76
2024/01/12 02:36:54;;;;;;;153.07;64.00;;;;;;;6.29;nan;99272.50;4988842;28;20057;-76
2024/01/12 02:39:24;;;;;;;175.52;66.13;;;;;;;6.21;nan;99269.81;4970581;28;20113;-75
2024/01/12 02:41:57;;;;;;;158.73;63.45;;;;;;;6.29;nan;99283.03;4965989;28;20760;-75
2024/01/12 02:44:27;;;;;;;162.93;63.15;;;;;;;6.03;nan;99289.19;4969535;28;20047;-75
2024/01/12 02:46:56;;;;;;;157.05;64.25;;;;;;;6.17;nan;99297.38;4974279;28;20042;-75
2024/01/12 02:49:26;;;;;;;178.48;67.10;;;;;;;6.16;nan;99303.63;4977420;28;20185;-75
2024/01/12 02:51:56;;;;;;;164.88;67.35;;;;;;;6.25;nan;99302.72;4997039;28;20042;-75
2024/01/12 02:54:25;;;;;;;160.82;65.05;;;;;;;6.37;nan;99315.66;5004030;28;20496;-76
2024/01/12 02:56:55;;;;;;;154.27;67.32;;;;;;;6.42;nan;99324.72;4971316;28;20122;-75
2024/01/12 02:59:24;;;;;;;164.70;65.43;;;;;;;6.47;nan;99325.13;4978604;28;20046;-75
2024/01/12 03:01:54;;;;;;;154.10;65.10;;;;;;;6.57;nan;99317.13;4983584;28;20089;-75
2024/01/12 03:04:23;;;;;;;161.38;67.97;;;;;;;6.39;nan;99314.53;4985955;28;20054;-75
2024/01/12 03:06:52;;;;;;;150.70;63.83;;;;;;;6.40;nan;99320.63;4984445;28;20134;-75
2024/01/12 03:09:22;;;;;;;157.73;63.90;;;;;;;6.39;nan;99340.81;4971319;28;20058;-75
2024/01/12 03:11:52;;;;;;;161.50;69.65;;;;;;;6.55;nan;99335.69;4977783;28;20042;-76
2024/01/12 03:14:22;;;;;;;166.00;69.57;;;;;;;6.29;nan;99330.38;4986162;28;20173;-76
2024/01/12 03:16:51;;;;;;;168.90;70.80;;;;;;;6.31;nan;99327.59;4983779;28;20526;-75
2024/01/12 03:19:21;;;;;;;168.32;67.25;;;;;;;6.35;nan;99336.00;4977678;28;20624;-76
2024/01/12 03:21:51;;;;;;;167.45;66.63;;;;;;;6.46;nan;99370.81;4973387;28;20061;-75
2024/01/12 03:24:20;;;;;;;167.15;70.30;;;;;;;6.61;nan;99382.47;4975053;28;20121;-74
2024/01/12 03:26:49;;;;;;;161.00;66.63;;;;;;;6.61;nan;99400.91;4980525;28;20054;-74
2024/01/12 03:29:19;;;;;;;168.10;68.70;;;;;;;6.69;nan;99414.13;5007447;28;20057;-75
2024/01/12 03:31:48;;;;;;;175.00;67.65;;;;;;;6.75;nan;99420.59;4989935;28;20049;-75
2024/01/12 03:34:18;;;;;;;170.77;66.28;;;;;;;6.68;nan;99419.56;4980725;28;20179;-76
2024/01/12 03:36:47;;;;;;;165.38;68.45;;;;;;;6.78;nan;99425.56;4972247;28;20066;-71
2024/01/12 03:39:17;;;;;;;172.90;69.43;;;;;;;6.97;nan;99429.84;4983559;28;20046;-70
2024/01/12 03:41:46;;;;;;;166.85;67.40;;;;;;;6.93;nan;99429.31;4967857;28;20074;-70
2024/01/12 03:44:16;;;;;;;168.25;68.93;;;;;;;6.81;nan;99419.19;4981484;28;20050;-71
2024/01/12 03:46:45;;;;;;;213.45;74.82;;;;;;;6.83;nan;99412.78;4952044;28;20046;-70
2024/01/12 03:49:15;;;;;;;174.25;70.38;;;;;;;6.74;nan;99418.94;4984638;28;20046;-70
2024/01/12 03:51:47;;;;;;;169.07;70.55;;;;;;;6.92;nan;99422.41;4981504;28;20042;-70
2024/01/12 03:54:16;;;;;;;183.50;74.00;;;;;;;7.08;nan;99400.66;4978657;28;20046;-71
2024/01/12 03:56:46;;;;;;;172.57;71.22;;;;;;;7.27;nan;99410.16;4985987;28;20038;-71
2024/01/12 03:59:16;;;;;;;184.00;73.20;;;;;;;7.18;nan;99415.38;4978505;28;20057;-71
2024/01/12 04:01:47;;;;;;;189.25;74.97;;;;;;;7.12;nan;99425.72;4978022;28;20055;-71
2024/01/12 04:04:16;;;;;;;191.80;77.63;;;;;;;7.15;nan;99420.94;4979881;28;20042;-71
2024/01/12 04:06:45;;;;;;;178.13;78.35;;;;;;;7.20;nan;99410.78;4984931;28;20050;-70
2024/01/12 04:09:16;;;;;;;186.55;78.78;;;;;;;7.16;nan;99412.09;4967429;28;20820;-71
2024/01/12 04:11:46;;;;;;;184.48;78.22;;;;;;;7.07;nan;99414.78;4978496;28;20053;-71
2024/01/12 04:14:15;;;;;;;188.30;76.20;;;;;;;7.23;nan;99420.19;4973433;28;20133;-72
2024/01/12 04:16:44;;;;;;;183.90;77.88;;;;;;;7.47;nan;99414.25;4971098;28;21906;-72
2024/01/12 04:19:14;;;;;;;176.60;77.20;;;;;;;7.30;nan;99410.69;4953994;28;20051;-73
2024/01/12 04:21:43;;;;;;;175.27;75.15;;;;;;;7.12;nan;99399.38;4954446;28;20133;-72
2024/01/12 04:24:12;;;;;;;175.57;73.72;;;;;;;7.10;nan;99402.16;4948659;28;20156;-72
2024/01/12 04:26:42;;;;;;;186.80;77.03;;;;;;;7.18;nan;99404.84;4954545;28;20055;-72
2024/01/12 04:29:12;;;;;;;193.15;78.15;;;;;;;7.33;nan;99405.09;4957144;28;20126;-72
2024/01/12 04:31:43;;;;;;;189.38;77.63;;;;;;;7.29;nan;99402.94;4963875;28;20042;-72
2024/01/12 04:34:12;;;;;;;181.20;75.95;;;;;;;7.51;nan;99418.25;4949465;28;20058;-72
2024/01/12 04:36:42;;;;;;;185.43;75.57;;;;;;;7.47;nan;99399.28;4956195;28;20055;-71
2024/01/12 04:39:11;;;;;;;185.57;78.10;;;;;;;7.75;nan;99409.63;4960905;28;20061;-72
2024/01/12 04:41:40;;;;;;;191.95;78.90;;;;;;;7.41;nan;99402.53;4958065;28;20062;-72
2024/01/12 04:44:10;;;;;;;193.27;79.88;;;;;;;7.48;nan;99408.00;4958683;28;20058;-73
2024/01/12 04:46:42;;;;;;;195.40;83.43;;;;;;;7.51;nan;99402.44;4959110;28;20051;-72
2024/01/12 04:49:12;;;;;;;190.90;79.40;;;;;;;7.53;nan;99398.63;4956271;28;20062;-71
2024/01/12 04:51:41;;;;;;;194.40;82.95;;;;;;;7.70;nan;99404.81;4965225;28;20063;-71
2024/01/12 04:54:10;;;;;;;185.75;80.72;;;;;;;7.85;nan;99402.44;4955924;28;20058;-73
2024/01/12 04:56:39;;;;;;;189.13;80.15;;;;;;;8.00;nan;99398.22;4977180;28;20462;-73
2024/01/12 04:59:09;;;;;;;190.82;81.65;;;;;;;7.87;nan;99388.13;4941744;28;20078;-72
2024/01/12 05:01:39;;;;;;;177.13;79.13;;;;;;;8.13;nan;99380.13;4956223;28;20106;-73
2024/01/12 05:04:09;;;;;;;181.15;80.78;;;;;;;8.19;nan;99392.66;4938077;28;20066;-73
2024/01/12 05:06:38;;;;;;;191.57;80.53;;;;;;;8.25;nan;99402.59;4957705;28;20043;-73
2024/01/12 05:09:08;;;;;;;185.82;80.65;;;;;;;8.24;nan;99394.81;4956334;28;20388;-73
2024/01/12 05:11:37;;;;;;;195.18;80.95;;;;;;;8.04;nan;99378.44;4955176;28;20055;-73
2024/01/12 05:14:06;;;;;;;198.70;81.30;;;;;;;8.04;nan;99384.56;4955249;28;20051;-72
2024/01/12 05:16:36;;;;;;;189.30;80.65;;;;;;;8.10;nan;99385.72;4946931;28;20054;-72
2024/01/12 05:19:05;;;;;;;189.90;76.78;;;;;;;7.91;nan;99389.44;4975266;28;20046;-72
2024/01/12 05:21:35;;;;;;;194.10;81.35;;;;;;;7.97;nan;99377.41;4972519;28;20054;-73
2024/01/12 05:24:04;;;;;;;209.45;82.05;;;;;;;7.90;nan;99382.50;4978204;28;20081;-72
2024/01/12 05:26:34;;;;;;;196.25;82.05;;;;;;;7.98;nan;99393.09;4964557;28;20070;-72
2024/01/12 05:29:04;;;;;;;190.85;81.80;;;;;;;7.99;nan;99402.66;4960065;28;20432;-72
2024/01/12 05:31:34;;;;;;;191.85;79.18;;;;;;;8.08;nan;99396.44;4948943;28;20051;-72
2024/01/12 05:34:04;;;;;;;191.38;80.45;;;;;;;8.34;nan;99401.66;4988458;28;20120;-75
2024/01/12 05:36:33;;;;;;;193.38;80.20;;;;;;;8.25;nan;99407.03;4996581;28;20050;-75
2024/01/12 05:39:04;;;;;;;206.65;83.10;;;;;;;8.31;nan;99409.06;4976095;28;20658;-76
2024/01/12 05:41:34;;;;;;;190.98;82.15;;;;;;;8.48;nan;99419.50;4978211;28;20496;-73
2024/01/12 05:44:03;;;;;;;189.25;82.78;;;;;;;8.50;nan;99420.16;4982422;28;20157;-73
2024/01/12 05:46:32;;;;;;;197.73;85.38;;;;;;;8.45;nan;99419.81;4988346;28;20050;-73
2024/01/12 05:49:04;;;;;;;218.50;88.80;;;;;;;8.53;nan;99421.66;4639272;28;9999807;-72
2024/01/12 05:51:34;;;;;;;205.07;88.43;;;;;;;8.71;nan;99414.44;4966180;28;20781;-76
2024/01/12 05:54:03;;;;;;;225.05;95.03;;;;;;;8.97;nan;99403.72;4980274;28;20051;-74
2024/01/12 05:56:33;;;;;;;229.25;93.63;;;;;;;8.92;nan;99406.88;4987017;28;20124;-73
2024/01/12 05:59:02;;;;;;;220.63;94.07;;;;;;;8.96;nan;99417.91;4969468;28;20062;-74
2024/01/12 06:01:32;;;;;;;206.73;89.55;;;;;;;8.99;nan;99417.59;4986496;28;20057;-74
2024/01/12 06:04:02;;;;;;;238.25;103.72;;;;;;;9.25;nan;99414.78;4981987;28;20487;-67
2024/01/12 06:06:31;;;;;;;229.45;96.07;;;;;;;9.17;nan;99418.25;4979986;28;20632;-70
2024/01/12 06:09:01;;;;;;;226.82;102.20;;;;;;;9.31;nan;99422.03;4984991;28;20054;-67
2024/01/12 06:11:31;;;;;;;221.63;97.85;;;;;;;9.24;nan;99423.72;4986105;28;20058;-67
2024/01/12 06:14:00;;;;;;;212.93;95.50;;;;;;;9.44;nan;99419.72;4994310;28;20041;-71
2024/01/12 06:16:29;;;;;;;228.70;100.68;;;;;;;9.43;nan;99410.94;4959483;28;20461;-66
2024/01/12 06:18:59;;;;;;;232.98;109.60;;;;;;;9.41;nan;99422.69;4971347;28;20066;-67
2024/01/12 06:21:28;;;;;;;220.30;104.53;;;;;;;9.41;nan;99420.06;4982390;28;20053;-67
2024/01/12 06:23:58;;;;;;;214.00;102.00;;;;;;;9.41;nan;99420.06;4986378;28;20050;-68
2024/01/12 06:26:27;;;;;;;197.20;94.13;;;;;;;9.43;nan;99421.53;4987197;28;20076;-68
2024/01/12 06:28:58;;;;;;;199.50;89.78;;;;;;;9.46;nan;99426.50;4639912;28;9999989;-65
2024/01/12 06:31:33;;;;;;;204.77;93.65;;;;;;;9.32;nan;99426.34;4983957;28;20057;-67
2024/01/12 06:34:03;;;;;;;192.90;87.45;;;;;;;9.44;nan;99414.41;4980666;28;20061;-66
2024/01/12 06:36:43;;;;;;;185.98;87.35;;;;;;;9.53;nan;99413.41;4684437;28;10000968;-65
2024/01/12 06:39:12;;;;;;;185.48;85.40;;;;;;;9.17;nan;99398.91;4975470;28;20699;-66
2024/01/12 06:41:43;;;;;;;199.82;90.18;;;;;;;9.11;nan;99387.22;4977377;28;20051;-66
2024/01/12 06:44:13;;;;;;;186.77;87.50;;;;;;;9.22;nan;99378.09;4978725;28;20049;-67
2024/01/12 06:46:43;;;;;;;185.23;86.50;;;;;;;9.46;nan;99386.00;4980414;28;20049;-67
2024/01/12 06:49:13;;;;;;;208.82;90.57;;;;;;;9.58;nan;99384.66;4977519;28;20071;-67
2024/01/12 06:51:42;;;;;;;195.98;89.95;;;;;;;9.93;nan;99384.22;4980452;28;20742;-67
2024/01/12 06:54:11;;;;;;;182.75;83.63;;;;;;;10.08;nan;99362.31;4965792;28;20613;-66
2024/01/12 06:56:42;;;;;;;179.57;81.93;;;;;;;10.24;nan;99349.03;4967655;28;20621;-67
2024/01/12 06:59:12;;;;;;;182.50;82.30;;;;;;;10.02;nan;99334.72;4971627;28;20209;-67
2024/01/12 07:01:41;;;;;;;176.38;80.75;;;;;;;10.13;nan;99330.88;4952527;28;20052;-67
2024/01/12 07:04:10;;;;;;;164.77;75.93;;;;;;;10.07;nan;99328.91;4983861;28;20826;-67
2024/01/12 07:06:40;;;;;;;164.88;79.07;;;;;;;10.15;nan;99328.84;4963258;28;20118;-68
2024/01/12 07:09:12;;;;;;;165.38;77.85;;;;;;;10.32;nan;99333.91;4972897;28;20616;-67
2024/01/12 07:11:42;;;;;;;;;;;;;;;10.47;nan;99338.47;4974760;28;20046;-67
2024/01/12 07:14:15;;;;;;;147.68;68.20;;;;;;;10.23;nan;99331.47;4964826;28;19930;-68
2024/01/12 07:16:45;;;;;;;150.45;73.60;;;;;;;10.67;nan;99342.28;4974198;28;20058;-67
2024/01/12 07:19:14;;;;;;;160.63;72.95;;;;;;;10.56;nan;99330.28;4979117;28;20046;-70
2024/01/12 07:21:44;;;;;;;150.73;71.43;;;;;;;10.47;nan;99336.63;4977223;28;20043;-70
2024/01/12 07:24:13;;;;;;;138.80;67.53;;;;;;;10.59;nan;99327.28;4976522;28;20163;-70
2024/01/12 07:26:43;;;;;;;145.30;70.28;;;;;;;10.57;nan;99328.47;4974713;28;20062;-70
2024/01/12 07:29:14;;;;;;;143.45;71.30;;;;;;;10.54;nan;99326.97;4973080;28;20062;-70
2024/01/12 07:31:44;;;;;;;140.70;67.70;;;;;;;10.54;nan;99308.44;4975766;28;20068;-71
2024/01/12 07:34:13;;;;;;;151.57;69.20;;;;;;;10.80;nan;99302.75;4975433;28;20141;-71
2024/01/12 07:36:43;;;;;;;149.77;70.68;;;;;;;10.55;nan;99294.19;4960130;28;20055;-71
2024/01/12 07:39:13;;;;;;;148.35;71.90;;;;;;;10.78;nan;99300.31;4951214;28;20134;-71
2024/01/12 07:41:43;;;;;;;154.82;73.00;;;;;;;11.01;nan;99299.44;4973143;28;20054;-70
2024/01/12 07:44:13;;;;;;;164.43;76.10;;;;;;;10.87;nan;99279.03;4968711;28;20157;-70
2024/01/12 07:46:43;;;;;;;164.63;78.63;;;;;;;11.02;nan;99288.63;4977142;28;20153;-70
2024/01/12 07:49:12;;;;;;;166.95;76.38;;;;;;;11.01;nan;99283.53;4972173;28;20043;-71
2024/01/12 07:51:42;;;;;;;168.13;76.45;;;;;;;11.20;nan;99265.25;4978880;28;20065;-71
2024/01/12 07:54:11;;;;;;;163.68;76.72;;;;;;;11.26;nan;99258.41;4977301;28;20069;-71
2024/01/12 07:56:44;;;;;;;167.98;77.35;;;;;;;10.82;nan;99247.78;4972457;28;20170;-70
2024/01/12 07:59:15;;;;;;;164.00;76.90;;;;;;;11.06;nan;99252.84;4975098;28;20054;-70
2024/01/12 08:01:52;;;;;;;164.85;77.00;;;;;;;11.40;nan;99260.22;4976987;28;20135;-69
2024/01/12 08:04:25;;;;;;;159.57;78.93;;;;;;;11.48;nan;99267.25;4980307;28;20058;-70
2024/01/12 08:07:06;;;;;;;172.27;80.55;;;;;;;11.24;nan;99266.53;4971583;28;20081;-68
2024/01/12 08:09:35;;;;;;;168.00;81.00;;;;;;;11.05;nan;99282.16;4969906;28;20051;-70
2024/01/12 08:12:05;;;;;;;166.52;79.22;;;;;;;11.40;nan;99278.78;4969217;28;20060;-69
2024/01/12 08:14:36;;;;;;;172.00;80.50;;;;;;;11.39;nan;99273.66;4977978;28;20046;-68
2024/01/12 08:17:07;;;;;;;170.23;82.22;;;;;;;11.58;nan;99258.03;4984939;28;20054;-70
2024/01/12 08:19:36;;;;;;;167.55;81.03;;;;;;;11.68;nan;99247.91;4986923;28;20042;-70
2024/01/12 08:22:05;;;;;;;166.57;78.47;;;;;;;11.71;nan;99263.50;4989660;28;20152;-70
2024/01/12 08:24:35;;;;;;;163.02;78.97;;;;;;;11.81;nan;99265.06;4980695;28;20046;-69
2024/01/12 08:27:04;;;;;;;167.70;81.40;;;;;;;11.83;nan;99268.34;4975404;28;20074;-70
2024/01/12 08:29:36;;;;;;;162.95;80.13;;;;;;;12.08;nan;99253.72;4961764;28;20050;-69
2024/01/12 08:32:06;;;;;;;161.68;75.25;;;;;;;12.29;nan;99250.25;4985376;28;20042;-69
2024/01/12 08:34:36;;;;;;;150.93;75.07;;;;;;;12.41;nan;99251.38;4983642;28;20051;-70
2024/01/12 08:37:06;;;;;;;148.93;71.95;;;;;;;12.52;nan;99254.34;4965518;28;20579;-70
2024/01/12 08:39:36;;;;;;;151.73;72.03;;;;;;;12.19;nan;99258.53;4997110;28;20133;-70
2024/01/12 08:42:06;;;;;;;138.93;68.32;;;;;;;12.13;nan;99256.63;4985826;28;20112;-70
2024/01/12 08:44:39;;;;;;;136.00;67.68;;;;;;;12.52;nan;99253.53;4974042;28;20489;-69
2024/01/12 08:47:10;;;;;;;131.63;64.00;;;;;;;12.40;nan;99249.72;4988939;28;20058;-69
2024/01/12 08:49:40;;;;;;;133.45;66.45;;;;;;;12.45;nan;99245.50;4968512;28;20081;-70
2024/01/12 08:52:10;;;;;;;116.82;59.10;;;;;;;12.55;nan;99243.34;4980008;28;20056;-69
2024/01/12 08:54:39;;;;;;;114.38;57.63;;;;;;;12.64;nan;99222.75;4977091;28;20050;-69
2024/01/12 08:57:09;;;;;;;122.72;61.33;;;;;;;11.79;nan;99230.75;4976648;28;20054;-69
2024/01/12 08:59:38;;;;;;;117.30;60.22;;;;;;;12.35;nan;99233.53;4980754;28;20054;-69
2024/01/12 09:02:08;;;;;;;120.80;61.20;;;;;;;12.63;nan;99226.44;4973248;28;20047;-70
2024/01/12 09:04:39;;;;;;;117.13;60.65;;;;;;;12.55;nan;99224.75;4960710;28;20061;-69
2024/01/12 09:07:10;;;;;;;126.10;62.97;;;;;;;12.69;nan;99227.50;4978980;28;20145;-70
2024/01/12 09:09:40;;;;;;;119.93;60.67;;;;;;;12.69;nan;99220.34;4975305;28;20073;-70
2024/01/12 09:12:09;;;;;;;117.50;61.55;;;;;;;12.68;nan;99217.88;4988965;28;20466;-69
2024/01/12 09:14:41;;;;;;;120.95;61.95;;;;;;;12.72;nan;99219.97;4956313;28;20066;-69
2024/01/12 09:17:10;;;;;;;123.65;62.70;;;;;;;12.74;nan;99209.16;4965067;28;20049;-76
2024/01/12 09:19:50;;;;;;;112.75;62.20;;;;;;;12.87;nan;99201.25;4932466;28;20765;-68
2024/01/12 09:22:21;;;;;;;111.78;59.47;;;;;;;13.17;nan;99197.38;4972568;28;20047;-70
2024/01/12 09:24:52;;;;;;;114.72;62.15;;;;;;;12.93;nan;99188.00;4974339;28;20065;-67
2024/01/12 09:27:22;;;;;;;128.18;63.85;;;;;;;13.12;nan;99181.19;4975089;28;20061;-67
2024/01/12 09:29:55;;;;;;;118.95;65.57;;;;;;;13.07;nan;99173.75;4971048;28;20142;-68
2024/01/12 09:32:26;;;;;;;119.57;62.22;;;;;;;12.48;nan;99165.41;4981333;28;20065;-69
2024/01/12 09:34:56;;;;;;;119.97;62.75;;;;;;;12.39;nan;99144.50;4971699;28;20050;-69
2024/01/12 09:37:27;;;;;;;116.43;61.95;;;;;;;12.47;nan;99136.41;4976739;28;20050;-68
2024/01/12 09:40:10;;;;;;;128.65;64.22;;;;;;;12.72;nan;99155.34;4964143;28;20058;-69
2024/01/12 09:42:45;;;;;;;126.00;64.25;;;;;;;12.46;nan;99158.66;4970868;28;20047;-68
2024/01/12 09:45:17;;;;;;;117.40;61.15;;;;;;;12.44;nan;99161.50;4966236;28;20051;-68
2024/01/12 09:47:50;;;;;;;118.07;61.70;;;;;;;12.49;nan;99153.78;4973173;28;20787;-68
2024/01/12 09:50:24;;;;;;;118.43;60.75;;;;;;;12.44;nan;99145.56;4972866;28;20054;-65
2024/01/12 09:52:54;;;;;;;115.32;60.95;;;;;;;12.26;nan;99145.22;4965837;28;20046;-66
2024/01/12 09:55:28;;;;;;;120.90;64.32;;;;;;;12.21;nan;99142.34;4973545;28;20501;-66
2024/01/12 09:58:00;;;;;;;126.50;64.78;;;;;;;12.39;nan;99149.84;4974614;28;20086;-68
2024/01/12 10:00:35;;;;;;;125.32;64.30;;;;;;;12.46;nan;99148.84;4969106;28;20047;-68
2024/01/12 10:03:06;;;;;;;122.85;62.13;;;;;;;12.33;nan;99155.91;4966726;28;20580;-66
2024/01/12 10:05:37;;;;;;;110.80;60.38;;;;;;;12.45;nan;99157.00;4977759;28;20489;-66
2024/01/12 10:08:08;;;;;;;116.28;60.50;;;;;;;12.44;nan;99156.19;4973107;28;20449;-64
2024/01/12 10:10:41;;;;;;;120.70;67.15;;;;;;;12.50;nan;99152.75;4981922;28;20049;-63
2024/01/12 10:13:10;;;;;;;134.45;68.28;;;;;;;12.67;nan;99155.13;4963564;28;20689;-66
2024/01/12 10:15:41;;;;;;;132.60;68.50;;;;;;;12.59;nan;99167.53;4977400;28;20063;-66
2024/01/12 10:18:11;;;;;;;122.22;63.35;;;;;;;12.44;nan;99172.13;4976767;28;20205;-65
2024/01/12 10:20:40;;;;;;;126.68;63.45;;;;;;;12.39;nan;99155.94;4962164;28;20038;-64
2024/01/12 10:23:22;;;;;;;115.95;59.55;;;;;;;12.30;nan;99157.13;4967859;28;20050;-65
2024/01/12 10:26:05;;;;;;;118.43;60.55;;;;;;;12.15;nan;99143.09;4940561;28;20136;-65
2024/01/12 10:28:34;;;;;;;117.65;60.55;;;;;;;12.29;nan;99150.16;4967641;28;20051;-65
2024/01/12 10:31:07;;;;;;;119.05;59.70;;;;;;;12.20;nan;99138.03;4961255;28;20439;-68
2024/01/12 10:33:41;;;;;;;127.38;64.10;;;;;;;12.06;nan;99126.47;4963421;28;20054;-66
2024/01/12 10:36:21;;;;;;;131.55;64.80;;;;;;;11.94;nan;99119.22;4956248;28;20051;-64
2024/01/12 10:38:51;;;;;;;128.52;63.78;;;;;;;11.99;nan;99108.88;4958050;28;20118;-67
2024/01/12 10:41:26;;;;;;;122.10;59.00;;;;;;;12.16;nan;99118.19;4961287;28;20055;-67
2024/01/12 10:44:03;;;;;;;128.70;65.15;;;;;;;12.07;nan;99140.56;4962714;28;20142;-65
2024/01/12 10:46:40;;;;;;;121.97;61.10;;;;;;;12.09;nan;99138.53;4956025;28;20046;-66
2024/01/12 10:49:21;;;;;;;116.40;61.13;;;;;;;12.13;nan;99134.47;4954606;28;20779;-65
2024/01/12 10:52:19;;;;;;;116.85;61.53;;;;;;;12.26;nan;99134.59;4957099;28;20372;-64
2024/01/12 10:55:04;;;;;;;114.93;60.72;;;;;;;12.12;nan;99138.16;4954011;28;20101;-65
2024/01/12 10:57:33;;;;;;;125.75;61.38;;;;;;;12.00;nan;99142.34;4957805;28;20694;-66
2024/01/12 11:00:05;;;;;;;120.18;58.85;;;;;;;11.94;nan;99151.91;4955524;28;20835;-66
2024/01/12 11:02:38;;;;;;;124.65;59.75;;;;;;;11.91;nan;99173.50;4960361;28;20047;-68
2024/01/12 11:05:23;;;;;;;113.55;57.75;;;;;;;12.05;nan;99177.09;4962168;28;20089;-66
2024/01/12 11:07:57;;;;;;;122.25;58.35;;;;;;;11.99;nan;99168.06;4958827;28;20043;-67
2024/01/12 11:10:28;;;;;;;112.28;59.58;;;;;;;11.93;nan;99165.34;4960038;28;20053;-68
2024/01/12 11:12:58;;;;;;;115.50;57.70;;;;;;;11.85;nan;99157.53;4964232;28;20054;-68
2024/01/12 11:15:31;;;;;;;122.15;57.38;;;;;;;11.85;nan;99158.34;4961864;28;20373;-67
2024/01/12 11:18:00;;;;;;;114.22;58.20;;;;;;;11.73;nan;99165.13;4949432;28;20404;-65
2024/01/12 11:20:30;;;;;;;116.18;57.58;;;;;;;11.64;nan;99172.38;4978572;28;20043;-67
2024/01/12 11:23:00;;;;;;;114.20;57.08;;;;;;;11.60;nan;99171.09;4972537;28;20666;-66
2024/01/12 11:25:32;;;;;;;114.05;57.67;;;;;;;11.51;nan;99161.59;4973088;28;20070;-69
2024/01/12 11:28:03;;;;;;;115.22;58.17;;;;;;;11.49;nan;99166.28;4982797;28;20501;-65
2024/01/12 11:30:32;;;;;;;101.70;53.60;;;;;;;11.53;nan;99164.09;4975198;28;20042;-65
2024/01/12 11:33:04;;;;;;;121.95;56.25;;;;;;;11.61;nan;99162.13;4976033;28;20058;-65
2024/01/12 11:35:37;;;;;;;108.25;54.78;;;;;;;11.54;nan;99171.03;4979866;28;20054;-64
2024/01/12 11:38:11;;;;;;;112.13;58.05;;;;;;;11.57;nan;99173.31;4963047;28;20112;-65
2024/01/12 11:40:44;;;;;;;106.35;56.47;;;;;;;11.33;nan;99163.03;4979061;28;20855;-66
2024/01/12 11:43:17;;;;;;;109.47;55.70;;;;;;;11.22;nan;99153.72;4976467;28;20441;-67
2024/01/12 11:45:52;;;;;;;108.85;54.88;;;;;;;11.09;nan;99162.34;4979704;28;20064;-67